Anderson, SC

12:32 PM EDT on May 29, 2015 (GMT -0400)
Southwood Area | | Change Station
CLOSE
Current Station
Personal Weather Station
Location: Anderson, SC
Elevation: 722 ft
Nearby Weather Stations

Elev 722 ft 34.49 °N, 82.66 °W | Updated 3 seconds ago

Overcast
Overcast
72.7 °F
Feels Like 71 °F
N
0.9
Wind Variable Wind from NW
Gusts 3.0 mph

Today
High -- | Low -- °F
--% Chance of Precip.
Yesterday
High -- | Low -- °F
Precip. -- in
6:20 AM 8:36 PM
Waxing Gibbous, 84% visible
Pressure 30.25 in
Visibility 10.0 miles
Clouds Few 4400 ft
Few 6000 ft
Overcast 8000 ft
Heat Index 71 °F
Dew Point 69 °F
Humidity 89%
Rainfall 0.07 in
Snow Depth Not available.
UV 3 out of 12
Pollen 6.80 out of 12
Air Quality Not available.
Flu Activity Local Activity
METAR KAND 291556Z AUTO 03003KT 10SM FEW044 FEW060 OVC080 22/17 A3027 RMK AO2 RAE42 SLP244 P0001 T02220172

More Conditions Fewer Conditions

Pressure 30.25 in
Visibility 10.0 miles
Clouds Few 4400 ft
Few 6000 ft
Overcast 8000 ft
Heat Index 71 °F
Dew Point 69 °F
Humidity 89%
Rainfall 0.07 in
Snow Depth Not available.
UV 3 out of 12
Pollen 6.80 out of 12
Air Quality Not available.
Flu Activity Local Activity
METAR KAND 291556Z AUTO 03003KT 10SM FEW044 FEW060 OVC080 22/17 A3027 RMK AO2 RAE42 SLP244 P0001 T02220172

More Conditions Fewer Conditions

10-Day Weather Forecast

Almanac

Astronomy

May. 29, 2015 Rise Set
Actual Time
Civil Twilight
Nautical Twilight
Astronomical Twilight
Moon
Length of Visible Light
Length of Day
Tomorrow will be .
, % of the Moon is Illuminated

Today's Extremes

State Highs State Lows

Community

WunderPhotos

Upload Photos

1,825,301 photos uploaded!

WunderBlogs® & News

Nearby

Air Quality

  Air Quality AQ Index Pollutant
Not available.

Snow Depth

Station Depth Elevation

Earthquake Activity

City Distance Mag. Time & Date
Minimum magnitude displayed is 2.5.

Coastal Water Temperatures

Place Temperature

Stations

Nearby Weather Stations

Station Location Temp. Windchill Dew Point Humidity Wind Precip. Elev Updated Type